This is the latest recevied weather packets stored in our database for station/object AD7ZD. If no packets are shown the sender has not sent any weather packets the latest 10 day(s).
| Time | Temp. | Humidity | Pressure | Rain* | Wind** | Luminosity | Snow |
|---|---|---|---|---|---|---|---|
| 1777912426 | 15.56° C | 40% | 1007.9 hPa | 0 mm | - | 245 W/m² | - |
| 1777912122 | 16.11° C | 39% | 1007.9 hPa | 0 mm | - | 449 W/m² | - |
| 1777911818 | 15.56° C | 40% | 1008.1 hPa | 0 mm | - | 357 W/m² | - |
| 1777911515 | 15.56° C | 41% | 1008.1 hPa | 0 mm | - | 423 W/m² | - |
| 1777911212 | 15.56° C | 42% | 1007.9 hPa | 0 mm | - | 374 W/m² | - |
| 1777910909 | 14.44° C | 44% | 1008.1 hPa | 0 mm | - | 284 W/m² | - |
| 1777910606 | 14.44° C | 45% | 1008.1 hPa | 0 mm | - | 215 W/m² | - |
| 1777910303 | 13.89° C | 46% | 1008.3 hPa | 0 mm | - | 191 W/m² | - |
| 1777910000 | 13.89° C | 47% | 1008 hPa | 0 mm | - | 196 W/m² | - |
| 1777909697 | 13.33° C | 48% | 1007.9 hPa | 0 mm | - | 182 W/m² | - |
| 1777909394 | 13.33° C | 48% | 1007.9 hPa | 0 mm | - | 143 W/m² | - |
| 1777909092 | 13.33° C | 48% | 1008 hPa | 0 mm | - | 146 W/m² | - |
| 1777908790 | 12.78° C | 49% | 1008 hPa | 0 mm | - | 157 W/m² | - |
| 1777908486 | 12.78° C | 49% | 1007.9 hPa | 0 mm | - | 175 W/m² | - |
| 1777908183 | 13.33° C | 49% | 1007.9 hPa | 0 mm | - | 175 W/m² | - |
| 1777907879 | 13.33° C | 51% | 1007.9 hPa | 0 mm | - | 198 W/m² | - |
| 1777907575 | 12.78° C | 52% | 1008.1 hPa | 0 mm | - | 139 W/m² | - |
| 1777907271 | 12.22° C | 52% | 1007.9 hPa | 0 mm | - | 132 W/m² | - |
| 1777906968 | 12.22° C | 53% | 1007.9 hPa | 0 mm | - | 110 W/m² | - |
| 1777906665 | 11.67° C | 54% | 1007.8 hPa | 0 mm | - | 119 W/m² | - |
| 1777906361 | 11.67° C | 54% | 1007.7 hPa | 0 mm | - | 116 W/m² | - |
| 1777906058 | 11.67° C | 55% | 1007.7 hPa | 0 mm | - | 97 W/m² | - |
| 1777905754 | 11.11° C | 55% | 1008 hPa | 0 mm | - | 81 W/m² | - |
| 1777905452 | 11.11° C | 55% | 1008.1 hPa | 0 mm | - | 77 W/m² | - |
| 1777905149 | 11.11° C | 55% | 1008.1 hPa | 0 mm | - | 70 W/m² | - |
* Rain latest hour (hover to see other rain measurements)
** Current wind speed in m/s (hover to see current wind gust speed)